sensor_id;sensor_type;location;lat;lon;timestamp;P1;durP1;ratioP1;P2;durP2;ratioP2
42590;SDS011;28218;53.342;-6.216;2024-03-17T00:02:17;16.58;;;3.63;;
42590;SDS011;28218;53.342;-6.216;2024-03-17T00:04:45;12.60;;;3.72;;
42590;SDS011;28218;53.342;-6.216;2024-03-17T00:07:12;13.07;;;3.17;;
42590;SDS011;28218;53.342;-6.216;2024-03-17T00:09:39;11.63;;;4.53;;
42590;SDS011;28218;53.342;-6.216;2024-03-17T00:12:06;4.57;;;2.58;;
42590;SDS011;28218;53.342;-6.216;2024-03-17T00:14:33;8.93;;;2.42;;
42590;SDS011;28218;53.342;-6.216;2024-03-17T00:17:01;9.85;;;3.42;;
42590;SDS011;28218;53.342;-6.216;2024-03-17T00:19:27;4.97;;;2.15;;
42590;SDS011;28218;53.342;-6.216;2024-03-17T00:21:54;3.47;;;2.28;;
42590;SDS011;28218;53.342;-6.216;2024-03-17T00:24:20;7.18;;;2.03;;
42590;SDS011;28218;53.342;-6.216;2024-03-17T00:26:47;7.75;;;2.33;;
42590;SDS011;28218;53.342;-6.216;2024-03-17T00:29:14;7.30;;;2.50;;
42590;SDS011;28218;53.342;-6.216;2024-03-17T00:31:42;10.38;;;2.20;;
42590;SDS011;28218;53.342;-6.216;2024-03-17T00:34:08;5.72;;;2.70;;
42590;SDS011;28218;53.342;-6.216;2024-03-17T00:36:35;7.05;;;2.45;;
42590;SDS011;28218;53.342;-6.216;2024-03-17T00:39:01;6.15;;;2.50;;
42590;SDS011;28218;53.342;-6.216;2024-03-17T00:41:29;8.68;;;2.40;;
42590;SDS011;28218;53.342;-6.216;2024-03-17T00:43:54;9.68;;;2.72;;
42590;SDS011;28218;53.342;-6.216;2024-03-17T00:46:22;6.53;;;2.28;;
42590;SDS011;28218;53.342;-6.216;2024-03-17T00:48:48;5.50;;;2.55;;
42590;SDS011;28218;53.342;-6.216;2024-03-17T00:51:15;7.43;;;2.22;;
42590;SDS011;28218;53.342;-6.216;2024-03-17T00:53:42;3.97;;;2.38;;
42590;SDS011;28218;53.342;-6.216;2024-03-17T00:56:09;9.00;;;3.78;;
42590;SDS011;28218;53.342;-6.216;2024-03-17T00:58:35;13.60;;;3.72;;
42590;SDS011;28218;53.342;-6.216;2024-03-17T01:01:04;12.80;;;2.25;;
42590;SDS011;28218;53.342;-6.216;2024-03-17T01:03:30;7.25;;;2.20;;
42590;SDS011;28218;53.342;-6.216;2024-03-17T01:05:57;6.30;;;2.30;;
42590;SDS011;28218;53.342;-6.216;2024-03-17T01:08:23;6.57;;;2.20;;
42590;SDS011;28218;53.342;-6.216;2024-03-17T01:10:50;8.02;;;2.17;;
42590;SDS011;28218;53.342;-6.216;2024-03-17T01:13:17;9.32;;;1.98;;
42590;SDS011;28218;53.342;-6.216;2024-03-17T01:15:44;7.88;;;2.15;;
42590;SDS011;28218;53.342;-6.216;2024-03-17T01:18:10;7.78;;;1.88;;
42590;SDS011;28218;53.342;-6.216;2024-03-17T01:20:37;8.15;;;1.58;;
42590;SDS011;28218;53.342;-6.216;2024-03-17T01:23:04;10.30;;;2.05;;
42590;SDS011;28218;53.342;-6.216;2024-03-17T01:25:33;5.55;;;1.70;;
42590;SDS011;28218;53.342;-6.216;2024-03-17T01:28:01;8.35;;;1.90;;
42590;SDS011;28218;53.342;-6.216;2024-03-17T01:30:28;11.80;;;2.53;;
42590;SDS011;28218;53.342;-6.216;2024-03-17T01:32:55;10.27;;;3.08;;
42590;SDS011;28218;53.342;-6.216;2024-03-17T01:35:22;6.15;;;2.30;;
42590;SDS011;28218;53.342;-6.216;2024-03-17T01:37:48;8.35;;;1.88;;
42590;SDS011;28218;53.342;-6.216;2024-03-17T01:40:15;9.35;;;1.98;;
42590;SDS011;28218;53.342;-6.216;2024-03-17T01:42:41;8.52;;;3.10;;
42590;SDS011;28218;53.342;-6.216;2024-03-17T01:45:27;7.50;;;2.38;;
42590;SDS011;28218;53.342;-6.216;2024-03-17T01:47:55;12.82;;;2.53;;
42590;SDS011;28218;53.342;-6.216;2024-03-17T01:50:31;11.50;;;3.05;;
42590;SDS011;28218;53.342;-6.216;2024-03-17T01:53:01;8.77;;;3.67;;
42590;SDS011;28218;53.342;-6.216;2024-03-17T01:55:35;12.63;;;2.67;;
42590;SDS011;28218;53.342;-6.216;2024-03-17T01:58:04;6.20;;;2.45;;
42590;SDS011;28218;53.342;-6.216;2024-03-17T02:00:33;8.02;;;2.58;;
42590;SDS011;28218;53.342;-6.216;2024-03-17T02:03:05;5.43;;;2.22;;
42590;SDS011;28218;53.342;-6.216;2024-03-17T02:05:34;3.67;;;1.95;;
42590;SDS011;28218;53.342;-6.216;2024-03-17T02:08:06;9.88;;;2.65;;
42590;SDS011;28218;53.342;-6.216;2024-03-17T02:10:33;9.57;;;3.20;;
42590;SDS011;28218;53.342;-6.216;2024-03-17T02:13:00;7.47;;;2.63;;
42590;SDS011;28218;53.342;-6.216;2024-03-17T02:15:28;9.00;;;2.65;;
42590;SDS011;28218;53.342;-6.216;2024-03-17T02:17:55;6.95;;;2.38;;
42590;SDS011;28218;53.342;-6.216;2024-03-17T02:20:22;6.90;;;2.63;;
42590;SDS011;28218;53.342;-6.216;2024-03-17T02:23:08;9.55;;;2.70;;
42590;SDS011;28218;53.342;-6.216;2024-03-17T02:25:35;10.90;;;3.03;;
42590;SDS011;28218;53.342;-6.216;2024-03-17T02:28:01;11.50;;;3.33;;
42590;SDS011;28218;53.342;-6.216;2024-03-17T02:30:28;11.35;;;2.95;;
42590;SDS011;28218;53.342;-6.216;2024-03-17T02:32:54;14.48;;;3.42;;
42590;SDS011;28218;53.342;-6.216;2024-03-17T02:35:24;7.40;;;2.55;;
42590;SDS011;28218;53.342;-6.216;2024-03-17T02:37:51;14.70;;;3.33;;
42590;SDS011;28218;53.342;-6.216;2024-03-17T02:40:17;12.30;;;3.10;;
42590;SDS011;28218;53.342;-6.216;2024-03-17T02:42:45;14.02;;;3.30;;
42590;SDS011;28218;53.342;-6.216;2024-03-17T02:45:12;13.75;;;3.97;;
42590;SDS011;28218;53.342;-6.216;2024-03-17T02:47:39;13.55;;;4.75;;
42590;SDS011;28218;53.342;-6.216;2024-03-17T02:50:07;13.85;;;4.60;;
42590;SDS011;28218;53.342;-6.216;2024-03-17T02:52:34;19.40;;;4.57;;
42590;SDS011;28218;53.342;-6.216;2024-03-17T02:55:01;12.27;;;5.03;;
42590;SDS011;28218;53.342;-6.216;2024-03-17T02:57:28;14.57;;;3.97;;
42590;SDS011;28218;53.342;-6.216;2024-03-17T02:59:58;14.68;;;4.45;;
42590;SDS011;28218;53.342;-6.216;2024-03-17T03:02:25;10.70;;;5.20;;
42590;SDS011;28218;53.342;-6.216;2024-03-17T03:04:52;18.60;;;7.18;;
42590;SDS011;28218;53.342;-6.216;2024-03-17T03:07:19;12.98;;;6.53;;
42590;SDS011;28218;53.342;-6.216;2024-03-17T03:09:46;16.15;;;6.97;;
42590;SDS011;28218;53.342;-6.216;2024-03-17T03:12:13;19.90;;;7.10;;
42590;SDS011;28218;53.342;-6.216;2024-03-17T03:14:40;16.98;;;6.32;;
42590;SDS011;28218;53.342;-6.216;2024-03-17T03:17:07;14.48;;;6.07;;
42590;SDS011;28218;53.342;-6.216;2024-03-17T03:19:34;19.13;;;7.03;;
42590;SDS011;28218;53.342;-6.216;2024-03-17T03:22:01;17.35;;;7.43;;
42590;SDS011;28218;53.342;-6.216;2024-03-17T03:24:28;17.40;;;7.30;;
42590;SDS011;28218;53.342;-6.216;2024-03-17T03:26:55;22.08;;;9.82;;
42590;SDS011;28218;53.342;-6.216;2024-03-17T03:29:21;18.15;;;8.40;;
42590;SDS011;28218;53.342;-6.216;2024-03-17T03:31:48;16.55;;;7.97;;
42590;SDS011;28218;53.342;-6.216;2024-03-17T03:34:15;14.88;;;8.45;;
42590;SDS011;28218;53.342;-6.216;2024-03-17T03:36:42;18.13;;;10.40;;
42590;SDS011;28218;53.342;-6.216;2024-03-17T03:39:09;17.13;;;9.82;;
42590;SDS011;28218;53.342;-6.216;2024-03-17T03:41:37;19.60;;;9.77;;
42590;SDS011;28218;53.342;-6.216;2024-03-17T03:44:04;23.70;;;10.82;;
42590;SDS011;28218;53.342;-6.216;2024-03-17T03:46:31;19.23;;;8.70;;
42590;SDS011;28218;53.342;-6.216;2024-03-17T03:48:58;17.63;;;8.90;;
42590;SDS011;28218;53.342;-6.216;2024-03-17T03:51:26;19.67;;;9.25;;
42590;SDS011;28218;53.342;-6.216;2024-03-17T03:53:52;18.88;;;9.27;;
42590;SDS011;28218;53.342;-6.216;2024-03-17T03:56:19;17.15;;;9.15;;
42590;SDS011;28218;53.342;-6.216;2024-03-17T03:58:47;16.58;;;9.50;;
42590;SDS011;28218;53.342;-6.216;2024-03-17T04:01:15;16.63;;;9.00;;
42590;SDS011;28218;53.342;-6.216;2024-03-17T04:03:47;21.02;;;9.10;;
42590;SDS011;28218;53.342;-6.216;2024-03-17T04:06:14;15.32;;;8.88;;
42590;SDS011;28218;53.342;-6.216;2024-03-17T04:08:42;16.38;;;8.98;;
42590;SDS011;28218;53.342;-6.216;2024-03-17T04:11:09;17.38;;;8.48;;
42590;SDS011;28218;53.342;-6.216;2024-03-17T04:13:36;20.33;;;9.38;;
42590;SDS011;28218;53.342;-6.216;2024-03-17T04:16:04;20.75;;;10.00;;
42590;SDS011;28218;53.342;-6.216;2024-03-17T04:18:32;20.30;;;9.93;;
42590;SDS011;28218;53.342;-6.216;2024-03-17T04:21:03;16.80;;;9.13;;
42590;SDS011;28218;53.342;-6.216;2024-03-17T04:23:32;22.30;;;10.95;;
42590;SDS011;28218;53.342;-6.216;2024-03-17T04:26:00;25.58;;;10.13;;
42590;SDS011;28218;53.342;-6.216;2024-03-17T04:28:28;19.73;;;7.70;;
42590;SDS011;28218;53.342;-6.216;2024-03-17T04:31:02;13.45;;;7.97;;
42590;SDS011;28218;53.342;-6.216;2024-03-17T04:33:31;21.73;;;9.85;;
42590;SDS011;28218;53.342;-6.216;2024-03-17T04:35:59;14.82;;;8.65;;
42590;SDS011;28218;53.342;-6.216;2024-03-17T04:38:27;15.30;;;9.20;;
42590;SDS011;28218;53.342;-6.216;2024-03-17T04:40:54;20.35;;;10.13;;
42590;SDS011;28218;53.342;-6.216;2024-03-17T04:43:32;19.90;;;8.32;;
42590;SDS011;28218;53.342;-6.216;2024-03-17T04:46:00;17.38;;;9.63;;
42590;SDS011;28218;53.342;-6.216;2024-03-17T04:48:32;16.52;;;10.20;;
42590;SDS011;28218;53.342;-6.216;2024-03-17T04:51:00;20.42;;;9.20;;
42590;SDS011;28218;53.342;-6.216;2024-03-17T04:53:27;16.98;;;8.85;;
42590;SDS011;28218;53.342;-6.216;2024-03-17T04:55:59;17.67;;;9.82;;
42590;SDS011;28218;53.342;-6.216;2024-03-17T04:58:26;18.63;;;9.75;;
42590;SDS011;28218;53.342;-6.216;2024-03-17T05:00:53;19.63;;;9.45;;
42590;SDS011;28218;53.342;-6.216;2024-03-17T05:03:20;22.35;;;9.27;;
42590;SDS011;28218;53.342;-6.216;2024-03-17T05:05:47;17.52;;;8.73;;
42590;SDS011;28218;53.342;-6.216;2024-03-17T05:08:14;18.88;;;9.68;;
42590;SDS011;28218;53.342;-6.216;2024-03-17T05:10:41;18.73;;;9.40;;
42590;SDS011;28218;53.342;-6.216;2024-03-17T05:13:08;15.82;;;8.40;;
42590;SDS011;28218;53.342;-6.216;2024-03-17T05:15:37;17.00;;;8.30;;
42590;SDS011;28218;53.342;-6.216;2024-03-17T05:18:04;18.85;;;9.55;;
42590;SDS011;28218;53.342;-6.216;2024-03-17T05:20:31;14.75;;;9.25;;
42590;SDS011;28218;53.342;-6.216;2024-03-17T05:22:58;12.90;;;7.95;;
42590;SDS011;28218;53.342;-6.216;2024-03-17T05:25:25;12.23;;;7.47;;
42590;SDS011;28218;53.342;-6.216;2024-03-17T05:27:52;17.25;;;9.93;;
42590;SDS011;28218;53.342;-6.216;2024-03-17T05:30:19;13.55;;;8.35;;
42590;SDS011;28218;53.342;-6.216;2024-03-17T05:32:46;17.05;;;6.85;;
42590;SDS011;28218;53.342;-6.216;2024-03-17T05:35:13;11.02;;;5.10;;
42590;SDS011;28218;53.342;-6.216;2024-03-17T05:37:40;11.63;;;4.78;;
42590;SDS011;28218;53.342;-6.216;2024-03-17T05:40:09;9.63;;;5.68;;
42590;SDS011;28218;53.342;-6.216;2024-03-17T05:42:38;12.23;;;6.15;;
42590;SDS011;28218;53.342;-6.216;2024-03-17T05:45:07;11.40;;;6.35;;
42590;SDS011;28218;53.342;-6.216;2024-03-17T05:47:39;14.50;;;6.53;;
42590;SDS011;28218;53.342;-6.216;2024-03-17T05:50:06;10.68;;;5.78;;
42590;SDS011;28218;53.342;-6.216;2024-03-17T05:52:34;17.30;;;6.75;;
42590;SDS011;28218;53.342;-6.216;2024-03-17T05:55:01;12.50;;;6.70;;
42590;SDS011;28218;53.342;-6.216;2024-03-17T05:57:29;14.90;;;5.70;;
42590;SDS011;28218;53.342;-6.216;2024-03-17T05:59:56;10.82;;;5.15;;
42590;SDS011;28218;53.342;-6.216;2024-03-17T06:02:23;11.63;;;5.10;;
42590;SDS011;28218;53.342;-6.216;2024-03-17T06:04:50;14.30;;;4.90;;
42590;SDS011;28218;53.342;-6.216;2024-03-17T06:07:17;10.27;;;5.15;;
42590;SDS011;28218;53.342;-6.216;2024-03-17T06:09:44;15.40;;;5.60;;
42590;SDS011;28218;53.342;-6.216;2024-03-17T06:12:12;9.90;;;5.30;;
42590;SDS011;28218;53.342;-6.216;2024-03-17T06:14:40;11.63;;;5.28;;
42590;SDS011;28218;53.342;-6.216;2024-03-17T06:17:06;11.80;;;5.57;;
42590;SDS011;28218;53.342;-6.216;2024-03-17T06:19:34;13.63;;;6.45;;
42590;SDS011;28218;53.342;-6.216;2024-03-17T06:22:01;11.70;;;6.13;;
42590;SDS011;28218;53.342;-6.216;2024-03-17T06:24:30;16.00;;;6.00;;
42590;SDS011;28218;53.342;-6.216;2024-03-17T06:26:57;12.57;;;5.85;;
42590;SDS011;28218;53.342;-6.216;2024-03-17T06:29:24;14.82;;;6.60;;
42590;SDS011;28218;53.342;-6.216;2024-03-17T06:31:51;12.73;;;5.88;;
42590;SDS011;28218;53.342;-6.216;2024-03-17T06:34:18;13.70;;;6.07;;
42590;SDS011;28218;53.342;-6.216;2024-03-17T06:36:47;11.98;;;5.10;;
42590;SDS011;28218;53.342;-6.216;2024-03-17T06:39:14;12.38;;;5.07;;
42590;SDS011;28218;53.342;-6.216;2024-03-17T06:41:42;8.25;;;4.25;;
42590;SDS011;28218;53.342;-6.216;2024-03-17T06:44:09;12.57;;;4.40;;
42590;SDS011;28218;53.342;-6.216;2024-03-17T06:46:36;10.88;;;5.57;;
42590;SDS011;28218;53.342;-6.216;2024-03-17T06:49:03;14.82;;;5.53;;
42590;SDS011;28218;53.342;-6.216;2024-03-17T06:51:30;9.98;;;4.85;;
42590;SDS011;28218;53.342;-6.216;2024-03-17T06:53:57;11.35;;;5.45;;
42590;SDS011;28218;53.342;-6.216;2024-03-17T06:56:24;12.40;;;5.65;;
42590;SDS011;28218;53.342;-6.216;2024-03-17T06:58:51;14.40;;;4.38;;
42590;SDS011;28218;53.342;-6.216;2024-03-17T07:01:19;10.85;;;5.32;;
42590;SDS011;28218;53.342;-6.216;2024-03-17T07:03:46;12.68;;;4.30;;
42590;SDS011;28218;53.342;-6.216;2024-03-17T07:06:13;9.57;;;4.05;;
42590;SDS011;28218;53.342;-6.216;2024-03-17T07:08:40;14.43;;;3.72;;
42590;SDS011;28218;53.342;-6.216;2024-03-17T07:11:07;11.23;;;3.70;;
42590;SDS011;28218;53.342;-6.216;2024-03-17T07:13:36;7.85;;;3.65;;
42590;SDS011;28218;53.342;-6.216;2024-03-17T07:16:04;10.38;;;3.58;;
42590;SDS011;28218;53.342;-6.216;2024-03-17T07:18:32;5.65;;;3.00;;
42590;SDS011;28218;53.342;-6.216;2024-03-17T07:21:01;13.25;;;3.55;;
42590;SDS011;28218;53.342;-6.216;2024-03-17T07:23:30;10.95;;;3.30;;
42590;SDS011;28218;53.342;-6.216;2024-03-17T07:25:59;13.82;;;3.22;;
42590;SDS011;28218;53.342;-6.216;2024-03-17T07:28:27;8.55;;;2.78;;
42590;SDS011;28218;53.342;-6.216;2024-03-17T07:30:55;15.65;;;4.30;;
42590;SDS011;28218;53.342;-6.216;2024-03-17T07:33:24;7.95;;;2.75;;
42590;SDS011;28218;53.342;-6.216;2024-03-17T07:38:25;7.38;;;2.72;;
42590;SDS011;28218;53.342;-6.216;2024-03-17T07:40:57;9.70;;;2.72;;
42590;SDS011;28218;53.342;-6.216;2024-03-17T07:43:26;5.65;;;1.92;;
42590;SDS011;28218;53.342;-6.216;2024-03-17T07:46:01;8.52;;;2.60;;
42590;SDS011;28218;53.342;-6.216;2024-03-17T07:48:34;5.35;;;2.22;;
42590;SDS011;28218;53.342;-6.216;2024-03-17T07:51:03;13.27;;;2.67;;
42590;SDS011;28218;53.342;-6.216;2024-03-17T07:53:32;7.57;;;2.13;;
42590;SDS011;28218;53.342;-6.216;2024-03-17T07:56:00;10.48;;;2.95;;
42590;SDS011;28218;53.342;-6.216;2024-03-17T07:58:30;8.38;;;2.35;;
42590;SDS011;28218;53.342;-6.216;2024-03-17T08:01:00;13.80;;;3.13;;
42590;SDS011;28218;53.342;-6.216;2024-03-17T08:03:27;13.35;;;2.65;;
42590;SDS011;28218;53.342;-6.216;2024-03-17T08:05:55;9.40;;;3.10;;
42590;SDS011;28218;53.342;-6.216;2024-03-17T08:08:22;13.70;;;3.35;;
42590;SDS011;28218;53.342;-6.216;2024-03-17T08:10:50;8.38;;;2.67;;
42590;SDS011;28218;53.342;-6.216;2024-03-17T08:13:17;10.57;;;4.00;;
42590;SDS011;28218;53.342;-6.216;2024-03-17T08:15:47;7.75;;;2.83;;
42590;SDS011;28218;53.342;-6.216;2024-03-17T08:18:22;8.68;;;2.75;;
42590;SDS011;28218;53.342;-6.216;2024-03-17T08:20:49;9.63;;;3.25;;
42590;SDS011;28218;53.342;-6.216;2024-03-17T08:23:16;12.60;;;3.03;;
42590;SDS011;28218;53.342;-6.216;2024-03-17T08:25:46;12.60;;;3.33;;
42590;SDS011;28218;53.342;-6.216;2024-03-17T08:28:25;10.00;;;3.25;;
42590;SDS011;28218;53.342;-6.216;2024-03-17T08:33:27;6.63;;;2.55;;
42590;SDS011;28218;53.342;-6.216;2024-03-17T08:35:55;8.23;;;2.63;;
42590;SDS011;28218;53.342;-6.216;2024-03-17T08:38:23;11.68;;;2.15;;
42590;SDS011;28218;53.342;-6.216;2024-03-17T08:40:51;4.88;;;2.17;;
42590;SDS011;28218;53.342;-6.216;2024-03-17T08:43:19;8.27;;;2.22;;
42590;SDS011;28218;53.342;-6.216;2024-03-17T08:45:56;7.22;;;2.55;;
42590;SDS011;28218;53.342;-6.216;2024-03-17T08:48:26;9.70;;;2.45;;
42590;SDS011;28218;53.342;-6.216;2024-03-17T08:50:54;9.07;;;2.80;;
42590;SDS011;28218;53.342;-6.216;2024-03-17T08:53:21;7.57;;;2.50;;
42590;SDS011;28218;53.342;-6.216;2024-03-17T08:55:49;6.93;;;1.90;;
42590;SDS011;28218;53.342;-6.216;2024-03-17T08:58:17;6.72;;;2.17;;
42590;SDS011;28218;53.342;-6.216;2024-03-17T09:00:44;16.23;;;3.00;;
42590;SDS011;28218;53.342;-6.216;2024-03-17T09:03:11;7.95;;;2.80;;
42590;SDS011;28218;53.342;-6.216;2024-03-17T09:05:42;4.88;;;2.25;;
42590;SDS011;28218;53.342;-6.216;2024-03-17T09:08:19;12.65;;;2.30;;
42590;SDS011;28218;53.342;-6.216;2024-03-17T09:10:48;8.75;;;2.35;;
42590;SDS011;28218;53.342;-6.216;2024-03-17T09:13:24;10.35;;;3.15;;
42590;SDS011;28218;53.342;-6.216;2024-03-17T09:15:56;7.10;;;2.30;;
42590;SDS011;28218;53.342;-6.216;2024-03-17T09:18:32;4.78;;;2.17;;
42590;SDS011;28218;53.342;-6.216;2024-03-17T09:21:04;7.30;;;2.60;;
42590;SDS011;28218;53.342;-6.216;2024-03-17T09:23:32;9.38;;;2.40;;
42590;SDS011;28218;53.342;-6.216;2024-03-17T09:28:29;8.18;;;2.08;;
42590;SDS011;28218;53.342;-6.216;2024-03-17T09:30:57;8.23;;;1.92;;
42590;SDS011;28218;53.342;-6.216;2024-03-17T09:33:25;7.53;;;1.60;;
42590;SDS011;28218;53.342;-6.216;2024-03-17T09:35:55;10.02;;;2.08;;
42590;SDS011;28218;53.342;-6.216;2024-03-17T09:38:27;7.60;;;2.33;;
42590;SDS011;28218;53.342;-6.216;2024-03-17T09:40:55;8.18;;;1.63;;
42590;SDS011;28218;53.342;-6.216;2024-03-17T09:43:25;4.87;;;2.20;;
42590;SDS011;28218;53.342;-6.216;2024-03-17T09:45:53;6.38;;;1.88;;
42590;SDS011;28218;53.342;-6.216;2024-03-17T09:48:27;10.40;;;2.15;;
42590;SDS011;28218;53.342;-6.216;2024-03-17T09:50:58;6.47;;;1.50;;
42590;SDS011;28218;53.342;-6.216;2024-03-17T09:53:27;4.53;;;1.13;;
42590;SDS011;28218;53.342;-6.216;2024-03-17T09:56:09;5.50;;;1.45;;
42590;SDS011;28218;53.342;-6.216;2024-03-17T09:58:39;6.60;;;1.55;;
42590;SDS011;28218;53.342;-6.216;2024-03-17T10:01:06;8.27;;;1.73;;
42590;SDS011;28218;53.342;-6.216;2024-03-17T10:06:17;7.70;;;2.10;;
42590;SDS011;28218;53.342;-6.216;2024-03-17T10:08:46;7.47;;;1.58;;
42590;SDS011;28218;53.342;-6.216;2024-03-17T10:11:14;6.35;;;0.98;;
42590;SDS011;28218;53.342;-6.216;2024-03-17T10:13:46;2.92;;;0.57;;
42590;SDS011;28218;53.342;-6.216;2024-03-17T10:16:28;1.20;;;0.50;;
42590;SDS011;28218;53.342;-6.216;2024-03-17T10:19:05;3.05;;;1.00;;
42590;SDS011;28218;53.342;-6.216;2024-03-17T10:21:39;3.20;;;0.70;;
42590;SDS011;28218;53.342;-6.216;2024-03-17T10:24:09;1.98;;;0.90;;
42590;SDS011;28218;53.342;-6.216;2024-03-17T10:29:23;2.00;;;0.60;;
42590;SDS011;28218;53.342;-6.216;2024-03-17T10:31:56;2.10;;;0.80;;
42590;SDS011;28218;53.342;-6.216;2024-03-17T10:34:25;10.45;;;5.80;;
42590;SDS011;28218;53.342;-6.216;2024-03-17T10:37:11;3.63;;;0.82;;
42590;SDS011;28218;53.342;-6.216;2024-03-17T10:39:41;1.00;;;0.65;;
42590;SDS011;28218;53.342;-6.216;2024-03-17T10:42:10;2.35;;;1.00;;
42590;SDS011;28218;53.342;-6.216;2024-03-17T10:44:40;4.18;;;1.00;;
42590;SDS011;28218;53.342;-6.216;2024-03-17T10:47:23;3.63;;;1.13;;
42590;SDS011;28218;53.342;-6.216;2024-03-17T10:49:52;4.00;;;1.05;;
42590;SDS011;28218;53.342;-6.216;2024-03-17T10:52:21;3.53;;;1.17;;
42590;SDS011;28218;53.342;-6.216;2024-03-17T10:54:52;8.13;;;1.30;;
42590;SDS011;28218;53.342;-6.216;2024-03-17T10:59:47;2.50;;;1.20;;
42590;SDS011;28218;53.342;-6.216;2024-03-17T11:02:22;5.78;;;1.27;;
42590;SDS011;28218;53.342;-6.216;2024-03-17T11:04:51;4.10;;;0.90;;
42590;SDS011;28218;53.342;-6.216;2024-03-17T11:07:20;2.75;;;0.80;;
42590;SDS011;28218;53.342;-6.216;2024-03-17T11:09:48;1.02;;;0.73;;
42590;SDS011;28218;53.342;-6.216;2024-03-17T11:17:52;5.35;;;0.95;;
42590;SDS011;28218;53.342;-6.216;2024-03-17T11:20:24;3.72;;;0.90;;
42590;SDS011;28218;53.342;-6.216;2024-03-17T11:22:55;3.72;;;1.40;;
42590;SDS011;28218;53.342;-6.216;2024-03-17T11:28:08;5.20;;;1.08;;
42590;SDS011;28218;53.342;-6.216;2024-03-17T11:41:43;1.65;;;0.70;;
42590;SDS011;28218;53.342;-6.216;2024-03-17T11:51:52;2.40;;;0.70;;
42590;SDS011;28218;53.342;-6.216;2024-03-17T11:54:27;2.05;;;0.55;;
42590;SDS011;28218;53.342;-6.216;2024-03-17T11:56:56;5.85;;;0.95;;
42590;SDS011;28218;53.342;-6.216;2024-03-17T11:59:26;2.17;;;0.90;;
42590;SDS011;28218;53.342;-6.216;2024-03-17T12:01:54;2.22;;;0.70;;
42590;SDS011;28218;53.342;-6.216;2024-03-17T12:04:21;1.27;;;0.32;;
42590;SDS011;28218;53.342;-6.216;2024-03-17T12:06:49;3.42;;;0.50;;
42590;SDS011;28218;53.342;-6.216;2024-03-17T12:09:23;1.85;;;0.55;;
42590;SDS011;28218;53.342;-6.216;2024-03-17T12:12:04;1.90;;;0.60;;
42590;SDS011;28218;53.342;-6.216;2024-03-17T12:14:36;1.33;;;0.40;;
42590;SDS011;28218;53.342;-6.216;2024-03-17T12:17:04;0.55;;;0.30;;
42590;SDS011;28218;53.342;-6.216;2024-03-17T12:19:33;1.65;;;0.40;;
42590;SDS011;28218;53.342;-6.216;2024-03-17T12:22:02;1.35;;;0.50;;
42590;SDS011;28218;53.342;-6.216;2024-03-17T12:24:29;0.52;;;0.35;;
42590;SDS011;28218;53.342;-6.216;2024-03-17T12:27:01;2.00;;;0.52;;
42590;SDS011;28218;53.342;-6.216;2024-03-17T12:29:34;0.57;;;0.38;;
42590;SDS011;28218;53.342;-6.216;2024-03-17T12:32:15;0.40;;;0.40;;
42590;SDS011;28218;53.342;-6.216;2024-03-17T12:34:43;7.20;;;2.08;;
42590;SDS011;28218;53.342;-6.216;2024-03-17T12:37:32;0.50;;;0.50;;
42590;SDS011;28218;53.342;-6.216;2024-03-17T12:39:59;0.90;;;0.30;;
42590;SDS011;28218;53.342;-6.216;2024-03-17T12:42:28;0.70;;;0.40;;
42590;SDS011;28218;53.342;-6.216;2024-03-17T12:44:55;0.47;;;0.30;;
42590;SDS011;28218;53.342;-6.216;2024-03-17T12:47:29;1.60;;;0.60;;
42590;SDS011;28218;53.342;-6.216;2024-03-17T12:49:57;0.30;;;0.30;;
42590;SDS011;28218;53.342;-6.216;2024-03-17T12:52:26;0.47;;;0.40;;
42590;SDS011;28218;53.342;-6.216;2024-03-17T12:54:57;0.82;;;0.30;;
42590;SDS011;28218;53.342;-6.216;2024-03-17T12:57:49;1.30;;;0.40;;
42590;SDS011;28218;53.342;-6.216;2024-03-17T13:00:59;2.08;;;0.30;;
42590;SDS011;28218;53.342;-6.216;2024-03-17T13:03:33;0.60;;;0.60;;
42590;SDS011;28218;53.342;-6.216;2024-03-17T13:06:02;1.05;;;0.60;;
42590;SDS011;28218;53.342;-6.216;2024-03-17T13:08:33;0.57;;;0.30;;
42590;SDS011;28218;53.342;-6.216;2024-03-17T13:11:00;0.90;;;0.32;;
42590;SDS011;28218;53.342;-6.216;2024-03-17T13:13:29;1.30;;;0.40;;
42590;SDS011;28218;53.342;-6.216;2024-03-17T13:15:57;0.40;;;0.40;;
42590;SDS011;28218;53.342;-6.216;2024-03-17T13:18:24;1.15;;;0.50;;
42590;SDS011;28218;53.342;-6.216;2024-03-17T13:20:51;0.95;;;0.40;;
42590;SDS011;28218;53.342;-6.216;2024-03-17T13:23:19;0.20;;;0.20;;
42590;SDS011;28218;53.342;-6.216;2024-03-17T13:25:49;0.80;;;0.50;;
42590;SDS011;28218;53.342;-6.216;2024-03-17T13:28:16;0.75;;;0.30;;
42590;SDS011;28218;53.342;-6.216;2024-03-17T13:30:43;0.45;;;0.38;;
42590;SDS011;28218;53.342;-6.216;2024-03-17T13:33:12;0.30;;;0.30;;
42590;SDS011;28218;53.342;-6.216;2024-03-17T13:35:41;0.30;;;0.30;;
42590;SDS011;28218;53.342;-6.216;2024-03-17T13:38:08;0.35;;;0.30;;
42590;SDS011;28218;53.342;-6.216;2024-03-17T13:40:37;2.45;;;0.40;;
42590;SDS011;28218;53.342;-6.216;2024-03-17T13:43:05;0.60;;;0.60;;
42590;SDS011;28218;53.342;-6.216;2024-03-17T13:45:40;3.10;;;0.50;;
42590;SDS011;28218;53.342;-6.216;2024-03-17T13:48:09;1.23;;;0.50;;
42590;SDS011;28218;53.342;-6.216;2024-03-17T13:50:39;2.45;;;0.50;;
42590;SDS011;28218;53.342;-6.216;2024-03-17T13:53:10;1.75;;;0.50;;
42590;SDS011;28218;53.342;-6.216;2024-03-17T13:55:38;0.50;;;0.40;;
42590;SDS011;28218;53.342;-6.216;2024-03-17T13:58:05;0.30;;;0.30;;
42590;SDS011;28218;53.342;-6.216;2024-03-17T14:00:32;0.40;;;0.30;;
42590;SDS011;28218;53.342;-6.216;2024-03-17T14:03:01;0.55;;;0.30;;
42590;SDS011;28218;53.342;-6.216;2024-03-17T14:05:28;0.52;;;0.47;;
42590;SDS011;28218;53.342;-6.216;2024-03-17T14:07:56;0.65;;;0.60;;
42590;SDS011;28218;53.342;-6.216;2024-03-17T14:10:24;0.73;;;0.50;;
42590;SDS011;28218;53.342;-6.216;2024-03-17T14:12:51;1.20;;;0.40;;
42590;SDS011;28218;53.342;-6.216;2024-03-17T14:15:20;2.20;;;0.60;;
42590;SDS011;28218;53.342;-6.216;2024-03-17T14:17:47;0.50;;;0.50;;
42590;SDS011;28218;53.342;-6.216;2024-03-17T14:20:15;3.80;;;0.88;;
42590;SDS011;28218;53.342;-6.216;2024-03-17T14:22:44;2.20;;;1.27;;
42590;SDS011;28218;53.342;-6.216;2024-03-17T14:25:17;4.20;;;1.93;;
42590;SDS011;28218;53.342;-6.216;2024-03-17T14:27:45;4.35;;;1.00;;
42590;SDS011;28218;53.342;-6.216;2024-03-17T14:30:16;3.05;;;1.10;;
42590;SDS011;28218;53.342;-6.216;2024-03-17T14:32:45;5.68;;;1.40;;
42590;SDS011;28218;53.342;-6.216;2024-03-17T14:35:13;9.55;;;1.00;;
42590;SDS011;28218;53.342;-6.216;2024-03-17T14:37:42;3.45;;;1.20;;
42590;SDS011;28218;53.342;-6.216;2024-03-17T14:40:13;4.65;;;1.30;;
42590;SDS011;28218;53.342;-6.216;2024-03-17T14:42:47;6.47;;;1.33;;
42590;SDS011;28218;53.342;-6.216;2024-03-17T14:45:15;7.32;;;1.80;;
42590;SDS011;28218;53.342;-6.216;2024-03-17T14:47:42;8.38;;;1.58;;
42590;SDS011;28218;53.342;-6.216;2024-03-17T14:50:10;13.55;;;2.80;;
42590;SDS011;28218;53.342;-6.216;2024-03-17T14:52:38;5.00;;;1.65;;
42590;SDS011;28218;53.342;-6.216;2024-03-17T14:55:10;8.20;;;1.95;;
42590;SDS011;28218;53.342;-6.216;2024-03-17T14:57:38;7.50;;;1.23;;
42590;SDS011;28218;53.342;-6.216;2024-03-17T15:00:10;7.70;;;1.70;;
42590;SDS011;28218;53.342;-6.216;2024-03-17T15:02:44;6.80;;;1.30;;
42590;SDS011;28218;53.342;-6.216;2024-03-17T15:05:13;8.45;;;1.70;;
42590;SDS011;28218;53.342;-6.216;2024-03-17T15:07:41;10.93;;;2.03;;
42590;SDS011;28218;53.342;-6.216;2024-03-17T15:10:08;10.02;;;2.55;;
42590;SDS011;28218;53.342;-6.216;2024-03-17T15:12:36;7.75;;;2.00;;
42590;SDS011;28218;53.342;-6.216;2024-03-17T15:15:03;10.73;;;1.92;;
42590;SDS011;28218;53.342;-6.216;2024-03-17T15:17:30;5.60;;;1.45;;
42590;SDS011;28218;53.342;-6.216;2024-03-17T15:19:58;10.18;;;1.52;;
42590;SDS011;28218;53.342;-6.216;2024-03-17T15:22:25;13.40;;;2.72;;